createdAt,value
2022-10-02T00:00:10.606Z,14.73
2022-10-02T00:02:46.769Z,14.74
2022-10-02T00:05:26.016Z,14.91
2022-10-02T00:08:01.433Z,14.57
2022-10-02T00:10:29.511Z,14.42
2022-10-02T00:13:08.604Z,14.58
2022-10-02T00:15:37.894Z,14.70
2022-10-02T00:18:12.114Z,14.51
2022-10-02T00:20:51.293Z,14.70
2022-10-02T00:23:27.193Z,14.78
2022-10-02T00:26:02.694Z,14.87
2022-10-02T00:28:54.593Z,14.90
2022-10-02T00:31:32.951Z,15.12
2022-10-02T00:34:33.035Z,14.93
2022-10-02T00:37:22.675Z,14.65
2022-10-02T00:39:53.281Z,14.88
2022-10-02T00:42:24.211Z,14.97
2022-10-02T00:45:32.907Z,15.18
2022-10-02T00:48:38.512Z,14.77
2022-10-02T00:51:38.612Z,14.60
2022-10-02T00:54:21.891Z,14.87
2022-10-02T00:57:00.695Z,14.96
2022-10-02T01:00:08.826Z,15.07
2022-10-02T01:02:36.474Z,14.76
2022-10-02T01:05:08.684Z,14.81
2022-10-02T01:07:39.660Z,14.83
2022-10-02T01:10:09.347Z,14.81
2022-10-02T01:12:38.295Z,14.53
2022-10-02T01:15:16.863Z,14.41
2022-10-02T01:17:46.351Z,14.51
2022-10-02T01:20:24.071Z,14.64
2022-10-02T01:22:59.114Z,14.76
2022-10-02T01:25:26.971Z,14.70
2022-10-02T01:27:55.275Z,14.75
2022-10-02T01:30:23.311Z,14.51
2022-10-02T01:32:55.651Z,14.39
2022-10-02T01:35:28.369Z,14.54
2022-10-02T01:37:56.231Z,14.74
2022-10-02T01:40:27.618Z,14.66
2022-10-02T01:42:56.602Z,14.77
2022-10-02T01:45:34.466Z,14.79
2022-10-02T01:48:14.263Z,14.65
2022-10-02T01:50:52.172Z,14.66
2022-10-02T01:53:22.602Z,14.65
2022-10-02T01:56:19.644Z,14.52
2022-10-02T01:59:13.572Z,14.68
2022-10-02T02:01:47.953Z,14.63
2022-10-02T02:04:28.392Z,14.50
2022-10-02T02:07:11.673Z,14.78
2022-10-02T02:09:54.152Z,14.45
2022-10-02T02:12:44.220Z,14.63
2022-10-02T02:15:52.858Z,14.64
2022-10-02T02:18:36.263Z,14.68
2022-10-02T02:21:08.993Z,14.67
2022-10-02T02:23:37.841Z,14.75
2022-10-02T02:26:12.654Z,14.57
2022-10-02T02:29:01.963Z,14.41
2022-10-02T02:31:37.444Z,14.63
2022-10-02T02:34:10.323Z,14.62
2022-10-02T02:36:41.671Z,14.70
2022-10-02T02:39:19.162Z,14.71
2022-10-02T02:41:56.372Z,14.76
2022-10-02T02:44:43.871Z,14.88
2022-10-02T02:47:33.283Z,14.84
2022-10-02T02:50:09.621Z,14.75
2022-10-02T02:52:45.844Z,14.41
2022-10-02T02:55:17.881Z,14.38
2022-10-02T02:58:03.512Z,14.66
2022-10-02T03:00:31.512Z,14.39
2022-10-02T03:02:59.661Z,14.69
2022-10-02T03:05:28.462Z,14.71
2022-10-02T03:07:59.272Z,14.22
2022-10-02T03:10:46.225Z,14.60
2022-10-02T03:13:38.093Z,14.36
2022-10-02T03:16:24.924Z,14.26
2022-10-02T03:19:14.357Z,14.35
2022-10-02T03:21:47.922Z,14.52
2022-10-02T03:24:40.774Z,14.47
2022-10-02T03:27:12.143Z,14.56
2022-10-02T03:30:01.711Z,14.30
2022-10-02T03:32:31.063Z,14.22
2022-10-02T03:34:59.507Z,14.28
2022-10-02T03:37:28.112Z,14.17
2022-10-02T03:40:01.054Z,14.58
2022-10-02T03:42:32.132Z,14.20
2022-10-02T03:45:00.274Z,14.41
2022-10-02T03:47:28.103Z,14.44
2022-10-02T03:49:55.954Z,14.69
2022-10-02T03:52:24.932Z,14.53
2022-10-02T03:54:56.793Z,14.31
2022-10-02T03:57:25.942Z,14.67
2022-10-02T04:00:10.436Z,14.35
2022-10-02T04:02:43.394Z,14.54
2022-10-02T04:05:53.802Z,14.61
2022-10-02T04:08:26.392Z,14.78
2022-10-02T04:10:54.263Z,14.72
2022-10-02T04:14:07.262Z,14.81
2022-10-02T04:16:39.407Z,14.69
2022-10-02T04:19:34.101Z,14.57
2022-10-02T04:22:33.331Z,14.10
2022-10-02T04:25:14.804Z,14.46
2022-10-02T04:27:57.421Z,14.63
2022-10-02T04:30:25.735Z,14.37
2022-10-02T04:32:54.785Z,14.17
2022-10-02T04:35:30.223Z,14.45
2022-10-02T04:38:05.153Z,14.30
2022-10-02T04:40:41.853Z,14.46
2022-10-02T04:43:35.373Z,14.46
2022-10-02T04:46:30.713Z,14.27
2022-10-02T04:49:23.584Z,14.21
2022-10-02T04:52:38.223Z,14.29
2022-10-02T04:55:17.352Z,14.53
2022-10-02T04:57:58.639Z,14.34
2022-10-02T05:00:30.682Z,14.11
2022-10-02T05:03:10.702Z,14.55
2022-10-02T05:06:03.322Z,14.37
2022-10-02T05:09:13.553Z,14.39
2022-10-02T05:11:53.983Z,14.57
2022-10-02T05:14:27.642Z,14.76
2022-10-02T05:17:16.754Z,14.60
2022-10-02T05:20:23.286Z,14.60
2022-10-02T05:22:51.336Z,14.58
2022-10-02T05:25:41.972Z,15.85
2022-10-02T05:28:13.118Z,17.08
2022-10-02T05:30:52.825Z,17.91
2022-10-02T05:33:32.844Z,19.00
2022-10-02T05:36:13.192Z,20.71
2022-10-02T05:38:55.481Z,20.65
2022-10-02T05:41:44.288Z,20.88
2022-10-02T05:44:28.802Z,20.34
2022-10-02T05:47:01.948Z,19.89
2022-10-02T05:49:37.155Z,19.01
2022-10-02T05:52:17.571Z,18.98
2022-10-02T05:54:47.693Z,19.15
2022-10-02T05:57:41.623Z,18.91
2022-10-02T06:00:39.505Z,19.10
2022-10-02T06:03:20.026Z,19.00
2022-10-02T06:05:57.808Z,19.02
2022-10-02T06:08:41.446Z,19.08
2022-10-02T06:11:18.033Z,18.86
2022-10-02T06:14:00.949Z,18.85
2022-10-02T06:16:50.953Z,18.72
2022-10-02T06:20:01.007Z,18.80
2022-10-02T06:23:15.522Z,19.07
2022-10-02T06:25:47.279Z,18.89
2022-10-02T06:28:20.326Z,19.00
2022-10-02T06:30:53.651Z,18.82
2022-10-02T06:33:24.191Z,19.22
2022-10-02T06:35:52.493Z,19.02
2022-10-02T06:38:48.841Z,18.87
2022-10-02T06:41:49.371Z,19.01
2022-10-02T06:44:27.779Z,19.14
2022-10-02T06:47:11.270Z,18.86
2022-10-02T06:50:01.997Z,18.79
2022-10-02T06:52:57.387Z,18.92
2022-10-02T06:55:49.073Z,18.83
2022-10-02T06:58:30.343Z,18.34
2022-10-02T07:01:23.281Z,18.15
2022-10-02T07:04:12.684Z,18.64
2022-10-02T07:07:14.491Z,18.38
2022-10-02T07:10:04.133Z,18.83
2022-10-02T07:13:01.591Z,19.07
2022-10-02T07:15:44.088Z,19.39
2022-10-02T07:18:47.241Z,19.39
2022-10-02T07:21:31.321Z,19.18
2022-10-02T07:24:17.581Z,19.34
2022-10-02T07:27:12.556Z,19.73
2022-10-02T07:29:43.150Z,19.20
2022-10-02T07:32:36.554Z,19.47
2022-10-02T07:35:04.990Z,19.45
2022-10-02T07:37:56.198Z,19.81
2022-10-02T07:41:01.603Z,19.43
2022-10-02T07:43:51.301Z,19.33
2022-10-02T07:46:29.660Z,20.02
2022-10-02T07:49:27.565Z,19.95
2022-10-02T07:52:18.242Z,20.31
2022-10-02T07:54:58.833Z,20.69
2022-10-02T07:57:36.330Z,21.12
2022-10-02T08:00:09.841Z,20.96
2022-10-02T08:02:46.136Z,20.86
2022-10-02T08:05:22.212Z,20.67
2022-10-02T08:07:57.778Z,19.98
2022-10-02T08:10:33.306Z,20.03
2022-10-02T08:13:22.942Z,20.36
2022-10-02T08:15:55.762Z,20.13
2022-10-02T08:18:37.605Z,20.91
2022-10-02T08:21:12.068Z,21.04
2022-10-02T08:23:44.652Z,21.27
2022-10-02T08:26:16.994Z,21.01
2022-10-02T08:29:12.353Z,21.55
2022-10-02T08:31:40.909Z,21.32
2022-10-02T08:34:17.526Z,21.30
2022-10-02T08:37:08.422Z,21.30
2022-10-02T08:40:01.815Z,21.77
2022-10-02T08:42:33.172Z,22.06
2022-10-02T08:45:22.541Z,22.13
2022-10-02T08:48:27.772Z,22.19
2022-10-02T08:51:18.161Z,21.53
2022-10-02T08:54:07.974Z,21.13
2022-10-02T08:56:41.312Z,21.35
2022-10-02T08:59:19.184Z,21.51
2022-10-02T09:02:02.338Z,21.12
2022-10-02T09:04:49.552Z,20.96
2022-10-02T09:07:29.542Z,21.00
2022-10-02T09:10:35.199Z,21.45
2022-10-02T09:13:23.064Z,21.84
2022-10-02T09:16:04.563Z,21.30
2022-10-02T09:19:04.378Z,20.93
2022-10-02T09:22:17.302Z,20.82
2022-10-02T09:25:17.562Z,21.35
2022-10-02T09:28:13.959Z,20.38
2022-10-02T09:30:58.531Z,20.98
2022-10-02T09:33:57.734Z,21.16
2022-10-02T09:36:40.866Z,21.67
2022-10-02T09:39:34.062Z,21.93
2022-10-02T09:42:06.242Z,22.71
2022-10-02T09:45:01.376Z,22.58
2022-10-02T09:47:39.151Z,22.50
2022-10-02T09:50:25.923Z,23.30
2022-10-02T09:53:28.095Z,22.28
2022-10-02T09:56:21.722Z,22.30
2022-10-02T09:58:52.502Z,22.04
2022-10-02T10:01:48.829Z,21.54
2022-10-02T10:04:54.039Z,21.43
2022-10-02T10:07:36.182Z,21.61
2022-10-02T10:10:41.714Z,21.78
2022-10-02T10:13:12.841Z,21.85
2022-10-02T10:16:20.435Z,21.65
2022-10-02T10:19:25.652Z,21.25
2022-10-02T10:22:10.733Z,22.19
2022-10-02T10:24:57.268Z,23.05
2022-10-02T10:27:39.000Z,22.13
2022-10-02T10:30:26.101Z,21.74
2022-10-02T10:33:16.230Z,21.39
2022-10-02T10:36:48.812Z,21.37
2022-10-02T10:39:35.332Z,20.54
2022-10-02T10:42:56.396Z,20.30
2022-10-02T10:45:30.373Z,19.73
2022-10-02T10:48:30.747Z,19.57
2022-10-02T10:51:14.692Z,19.94
2022-10-02T10:54:01.730Z,19.60
2022-10-02T10:56:39.050Z,19.55
2022-10-02T10:59:12.754Z,19.83
2022-10-02T11:01:53.446Z,19.38
2022-10-02T11:04:39.152Z,19.57
2022-10-02T11:07:26.803Z,19.72
2022-10-02T11:10:11.597Z,19.72
2022-10-02T11:12:42.336Z,19.36
2022-10-02T11:15:37.712Z,19.33
2022-10-02T11:18:34.823Z,19.56
2022-10-02T11:21:40.141Z,19.46
2022-10-02T11:24:23.005Z,19.74
2022-10-02T11:26:56.960Z,19.69
2022-10-02T11:29:40.161Z,19.80
2022-10-02T11:32:28.377Z,19.88
2022-10-02T11:35:15.094Z,20.47
2022-10-02T11:38:03.993Z,20.66
2022-10-02T11:40:38.692Z,21.25
2022-10-02T11:43:25.082Z,21.75
2022-10-02T11:46:09.747Z,21.52
2022-10-02T11:49:11.781Z,21.54
2022-10-02T11:51:48.982Z,21.64
2022-10-02T11:54:45.061Z,21.46
2022-10-02T11:57:48.251Z,21.55
2022-10-02T12:00:45.574Z,21.43
2022-10-02T12:03:36.639Z,21.09
2022-10-02T12:06:15.550Z,20.57
2022-10-02T12:09:00.771Z,20.60
2022-10-02T12:11:40.285Z,20.23
2022-10-02T12:14:23.824Z,20.50
2022-10-02T12:17:27.174Z,20.35
2022-10-02T12:20:32.652Z,20.33
2022-10-02T12:23:36.632Z,20.37
2022-10-02T12:26:40.443Z,19.85
2022-10-02T12:29:26.134Z,19.83
2022-10-02T12:32:09.549Z,19.77
2022-10-02T12:35:03.922Z,19.99
2022-10-02T12:37:38.271Z,19.60
2022-10-02T12:40:17.745Z,19.77
2022-10-02T12:42:56.295Z,19.57
2022-10-02T12:45:32.439Z,19.52
2022-10-02T12:48:12.402Z,19.46
2022-10-02T12:50:46.860Z,19.66
2022-10-02T12:53:52.669Z,19.60
2022-10-02T12:56:39.881Z,19.13
2022-10-02T12:59:21.368Z,19.10
2022-10-02T13:02:49.093Z,18.79
2022-10-02T13:05:35.253Z,19.35
2022-10-02T13:08:25.183Z,19.36
2022-10-02T13:11:05.682Z,19.35
2022-10-02T13:14:01.318Z,18.97
2022-10-02T13:16:30.222Z,18.95
2022-10-02T13:19:30.642Z,19.29
2022-10-02T13:21:59.256Z,19.19
2022-10-02T13:24:57.634Z,19.13
2022-10-02T13:27:43.343Z,18.91
2022-10-02T13:30:11.578Z,18.85
2022-10-02T13:33:08.650Z,19.27
2022-10-02T13:36:00.893Z,18.48
2022-10-02T13:39:08.675Z,18.59
2022-10-02T13:41:55.149Z,18.84
2022-10-02T13:44:50.014Z,18.94
2022-10-02T13:47:40.662Z,18.98
2022-10-02T13:50:18.902Z,18.88
2022-10-02T13:52:58.981Z,18.94
2022-10-02T13:55:30.851Z,19.08
2022-10-02T13:58:11.135Z,18.86
2022-10-02T14:00:39.232Z,18.89
2022-10-02T14:03:29.069Z,18.73
2022-10-02T14:06:25.318Z,18.69
2022-10-02T14:09:12.899Z,18.74
2022-10-02T14:11:58.770Z,18.65
2022-10-02T14:14:45.349Z,18.39
2022-10-02T14:17:36.111Z,18.36
2022-10-02T14:20:20.613Z,18.12
2022-10-02T14:23:05.848Z,18.46
2022-10-02T14:25:40.275Z,18.50
2022-10-02T14:28:46.351Z,18.21
2022-10-02T14:31:18.024Z,18.17
2022-10-02T14:34:03.504Z,18.12
2022-10-02T14:36:41.513Z,18.00
2022-10-02T14:39:28.283Z,18.17
2022-10-02T14:41:59.391Z,18.11
2022-10-02T14:44:28.784Z,18.27
2022-10-02T14:47:06.632Z,18.37
2022-10-02T14:49:48.683Z,18.22
2022-10-02T14:52:35.703Z,18.18
2022-10-02T14:55:22.352Z,17.98
2022-10-02T14:58:13.102Z,18.03
2022-10-02T15:01:12.303Z,18.08
2022-10-02T15:03:55.893Z,17.87
2022-10-02T15:06:32.954Z,17.90
2022-10-02T15:09:33.421Z,18.29
2022-10-02T15:12:13.962Z,17.72
2022-10-02T15:15:18.304Z,18.06
2022-10-02T15:18:21.233Z,17.62
2022-10-02T15:21:00.851Z,17.83
2022-10-02T15:23:48.234Z,17.73
2022-10-02T15:26:28.442Z,17.74
2022-10-02T15:28:59.227Z,17.43
2022-10-02T15:31:42.334Z,16.87
2022-10-02T15:34:37.484Z,16.99
2022-10-02T15:37:11.722Z,17.40
2022-10-02T15:39:42.755Z,17.22
2022-10-02T15:42:17.687Z,17.20
2022-10-02T15:45:03.969Z,17.08
2022-10-02T15:47:54.986Z,17.00
2022-10-02T15:50:32.163Z,17.25
2022-10-02T15:53:24.981Z,16.95
2022-10-02T15:56:13.721Z,17.12
2022-10-02T15:59:16.092Z,16.75
2022-10-02T16:01:58.245Z,16.83
2022-10-02T16:04:51.459Z,16.94
2022-10-02T16:07:36.108Z,16.80
2022-10-02T16:10:27.516Z,16.77
2022-10-02T16:13:13.837Z,16.94
2022-10-02T16:16:19.206Z,16.74
2022-10-02T16:18:54.510Z,16.89
2022-10-02T16:21:50.774Z,16.62
2022-10-02T16:24:41.215Z,16.83
2022-10-02T16:27:12.724Z,16.81
2022-10-02T16:30:12.695Z,16.74
2022-10-02T16:33:01.974Z,16.81
2022-10-02T16:35:58.033Z,17.04
2022-10-02T16:38:41.301Z,16.83
2022-10-02T16:41:28.376Z,16.91
2022-10-02T16:44:24.140Z,16.66
2022-10-02T16:47:50.455Z,16.84
2022-10-02T16:50:24.324Z,16.85
2022-10-02T16:53:04.623Z,16.52
2022-10-02T16:55:38.343Z,16.49
2022-10-02T16:58:26.385Z,16.44
2022-10-02T17:01:25.703Z,16.40
2022-10-02T17:04:16.226Z,16.53
2022-10-02T17:06:50.304Z,16.65
2022-10-02T17:09:24.981Z,16.59
2022-10-02T17:12:04.253Z,16.55
2022-10-02T17:14:45.152Z,16.43
2022-10-02T17:17:36.894Z,16.54
2022-10-02T17:20:16.903Z,16.61
2022-10-02T17:23:00.553Z,16.79
2022-10-02T17:25:43.983Z,16.56
2022-10-02T17:28:22.267Z,16.58
2022-10-02T17:31:08.663Z,16.20
2022-10-02T17:33:46.728Z,16.78
2022-10-02T17:36:36.737Z,16.60
2022-10-02T17:39:33.384Z,16.63
2022-10-02T17:42:07.431Z,16.56
2022-10-02T17:44:56.651Z,16.30
2022-10-02T17:47:39.881Z,16.34
2022-10-02T17:50:25.544Z,16.10
2022-10-02T17:53:29.301Z,16.02
2022-10-02T17:56:22.090Z,16.02
2022-10-02T17:58:56.171Z,15.96
2022-10-02T18:01:58.588Z,16.20
2022-10-02T18:04:36.300Z,15.94
2022-10-02T18:07:30.381Z,16.25
2022-10-02T18:10:08.933Z,16.03
2022-10-02T18:12:58.859Z,15.91
2022-10-02T18:15:35.703Z,16.25
2022-10-02T18:18:45.183Z,16.12
2022-10-02T18:21:32.132Z,16.08
2022-10-02T18:24:34.062Z,16.11
2022-10-02T18:27:37.814Z,16.14
2022-10-02T18:30:12.741Z,16.12
2022-10-02T18:33:12.304Z,16.44
2022-10-02T18:36:19.119Z,16.27
2022-10-02T18:38:47.411Z,16.61
2022-10-02T18:41:27.523Z,16.28
2022-10-02T18:44:30.171Z,16.22
2022-10-02T18:47:11.082Z,16.23
2022-10-02T18:50:00.703Z,16.23
2022-10-02T18:52:47.821Z,16.20
2022-10-02T18:55:34.791Z,16.15
2022-10-02T18:58:37.309Z,15.96
2022-10-02T19:01:11.141Z,16.16
2022-10-02T19:04:01.194Z,16.20
2022-10-02T19:06:51.589Z,16.23
2022-10-02T19:09:25.185Z,16.14
2022-10-02T19:12:06.631Z,16.41
2022-10-02T19:14:42.757Z,16.14
2022-10-02T19:17:23.996Z,16.35
2022-10-02T19:19:56.106Z,16.52
2022-10-02T19:22:30.631Z,16.35
2022-10-02T19:25:17.234Z,16.36
2022-10-02T19:27:51.229Z,16.11
2022-10-02T19:30:23.947Z,16.19
2022-10-02T19:32:57.677Z,16.15
2022-10-02T19:35:30.980Z,16.21
2022-10-02T19:38:10.098Z,16.18
2022-10-02T19:40:38.212Z,16.28
2022-10-02T19:43:08.689Z,16.42
2022-10-02T19:45:41.344Z,16.48
2022-10-02T19:48:11.023Z,16.36
2022-10-02T19:50:42.601Z,16.10
2022-10-02T19:53:19.901Z,16.06
2022-10-02T19:55:52.382Z,16.19
2022-10-02T19:58:22.901Z,15.97
2022-10-02T20:00:59.889Z,16.15
2022-10-02T20:03:33.821Z,15.90
2022-10-02T20:06:12.745Z,16.09
2022-10-02T20:09:08.917Z,16.08
2022-10-02T20:11:40.603Z,16.11
2022-10-02T20:14:14.031Z,15.93
2022-10-02T20:17:00.385Z,15.71
2022-10-02T20:19:31.865Z,15.68
2022-10-02T20:22:04.423Z,15.80
2022-10-02T20:24:37.536Z,15.83
2022-10-02T20:27:11.756Z,15.59
2022-10-02T20:29:47.073Z,15.45
2022-10-02T20:32:21.344Z,15.65
2022-10-02T20:34:50.693Z,15.59
2022-10-02T20:37:23.942Z,15.59
2022-10-02T20:40:01.444Z,15.29
2022-10-02T20:42:35.902Z,15.29
2022-10-02T20:45:04.444Z,15.52
2022-10-02T20:47:50.301Z,15.44
2022-10-02T20:50:46.441Z,15.48
2022-10-02T20:53:45.300Z,15.50
2022-10-02T20:56:28.722Z,15.57
2022-10-02T20:59:30.811Z,15.38
2022-10-02T21:02:15.510Z,15.22
2022-10-02T21:05:08.042Z,15.16
2022-10-02T21:07:57.072Z,15.38
2022-10-02T21:10:45.653Z,15.44
2022-10-02T21:13:25.563Z,15.19
2022-10-02T21:16:25.292Z,15.29
2022-10-02T21:18:53.521Z,15.29
2022-10-02T21:21:48.420Z,15.19
2022-10-02T21:24:40.164Z,15.12
2022-10-02T21:27:23.113Z,14.95
2022-10-02T21:30:15.503Z,14.80
2022-10-02T21:33:09.431Z,15.10
2022-10-02T21:35:44.573Z,15.10
2022-10-02T21:38:43.801Z,14.96
2022-10-02T21:41:21.273Z,14.97
2022-10-02T21:44:18.328Z,14.73
2022-10-02T21:47:05.209Z,15.02
2022-10-02T21:50:12.413Z,15.07
2022-10-02T21:53:22.042Z,15.13
2022-10-02T21:56:14.731Z,14.93
2022-10-02T21:59:10.622Z,14.95
2022-10-02T22:02:09.376Z,15.20
2022-10-02T22:05:10.483Z,15.00
2022-10-02T22:07:51.591Z,14.86
2022-10-02T22:10:30.644Z,15.12
2022-10-02T22:13:18.353Z,14.76
2022-10-02T22:16:04.517Z,14.86
2022-10-02T22:18:55.262Z,14.86
2022-10-02T22:21:41.000Z,14.90
2022-10-02T22:24:24.324Z,14.82
2022-10-02T22:27:21.610Z,14.85
2022-10-02T22:29:54.352Z,14.96
2022-10-02T22:33:05.763Z,14.87
2022-10-02T22:35:51.854Z,15.05
2022-10-02T22:38:33.002Z,15.17
2022-10-02T22:41:07.152Z,14.51
2022-10-02T22:44:00.294Z,14.93
2022-10-02T22:47:03.266Z,14.69
2022-10-02T22:49:50.902Z,14.85
2022-10-02T22:52:27.810Z,14.95
2022-10-02T22:55:04.880Z,14.79
2022-10-02T22:58:06.460Z,14.77
2022-10-02T23:00:51.372Z,14.83
2022-10-02T23:03:31.561Z,14.94
2022-10-02T23:06:19.202Z,14.69
2022-10-02T23:09:12.973Z,15.02
2022-10-02T23:11:50.361Z,14.95
2022-10-02T23:14:47.762Z,14.79
2022-10-02T23:17:22.634Z,14.95
2022-10-02T23:19:56.734Z,14.81
2022-10-02T23:22:32.051Z,14.70
2022-10-02T23:25:30.441Z,14.75
2022-10-02T23:28:15.374Z,14.64
2022-10-02T23:30:50.977Z,14.63
2022-10-02T23:33:26.306Z,14.42
2022-10-02T23:36:07.434Z,14.83
2022-10-02T23:38:58.612Z,14.58
2022-10-02T23:41:39.640Z,14.60
2022-10-02T23:44:20.907Z,14.53
2022-10-02T23:46:51.468Z,14.75
2022-10-02T23:49:24.154Z,14.58
2022-10-02T23:51:58.154Z,14.38
2022-10-02T23:55:07.753Z,14.50
2022-10-02T23:57:41.264Z,14.73
